createdAt,value
2023-04-29T00:01:52.603Z,10.10
2023-04-29T00:16:52.548Z,8.90
2023-04-29T00:31:52.726Z,8.40
2023-04-29T00:46:53.132Z,9.30
2023-04-29T01:01:53.418Z,11.20
2023-04-29T01:16:53.569Z,8.40
2023-04-29T01:31:53.746Z,9.60
2023-04-29T01:46:53.790Z,10.00
2023-04-29T02:01:54.058Z,13.10
2023-04-29T02:16:54.253Z,13.40
2023-04-29T02:31:54.438Z,14.10
2023-04-29T02:46:54.504Z,16.40
2023-04-29T03:01:54.955Z,18.10
2023-04-29T03:16:55.110Z,21.90
2023-04-29T03:31:55.101Z,19.10
2023-04-29T03:46:55.526Z,19.10
2023-04-29T04:01:55.849Z,23.60
2023-04-29T04:16:55.927Z,66.70
2023-04-29T04:31:56.121Z,336.30
2023-04-29T04:47:10.606Z,1162.10
2023-04-29T05:02:16.126Z,1032.70
2023-04-29T05:17:17.057Z,1024.70
2023-04-29T05:32:17.011Z,532.60
2023-04-29T05:47:17.381Z,562.10
2023-04-29T06:02:17.791Z,548.90
2023-04-29T06:17:18.650Z,535.80
2023-04-29T06:32:18.852Z,579.70
2023-04-29T06:47:19.046Z,600.90
2023-04-29T07:02:19.239Z,425.70
2023-04-29T07:17:19.315Z,207.90
2023-04-29T07:32:19.335Z,851.30
2023-04-29T07:47:19.263Z,430.10
2023-04-29T08:02:19.528Z,735.70
2023-04-29T08:17:19.828Z,356.50
2023-04-29T08:32:19.884Z,737.70
2023-04-29T08:47:20.100Z,407.90
2023-04-29T09:02:20.454Z,441.80
2023-04-29T09:17:20.349Z,533.70
2023-04-29T09:32:20.406Z,217.80
2023-04-29T09:47:20.976Z,190.80
2023-04-29T10:02:21.490Z,172.50
2023-04-29T10:17:21.420Z,205.20
2023-04-29T10:32:21.805Z,57.40
2023-04-29T10:47:21.671Z,166.50
2023-04-29T11:02:22.249Z,184.80
2023-04-29T11:17:22.427Z,225.50
2023-04-29T11:32:23.133Z,163.40
2023-04-29T11:47:23.587Z,30.20
2023-04-29T12:02:23.816Z,57.70
2023-04-29T12:17:24.203Z,143.00
2023-04-29T12:32:24.342Z,43.20
2023-04-29T12:47:24.569Z,49.50
2023-04-29T13:02:26.329Z,13.20
2023-04-29T13:17:26.806Z,127.40
2023-04-29T13:32:34.705Z,150.20
2023-04-29T13:47:32.612Z,151.10
2023-04-29T14:02:33.706Z,7.10
2023-04-29T14:17:34.685Z,8.00
2023-04-29T14:32:35.315Z,4.20
2023-04-29T14:47:35.300Z,87.20
2023-04-29T15:02:35.350Z,94.40
2023-04-29T15:17:36.030Z,125.50
2023-04-29T15:32:37.127Z,10.20
2023-04-29T15:47:37.908Z,90.80
2023-04-29T16:02:38.269Z,59.30
2023-04-29T16:17:38.685Z,4.00
2023-04-29T16:32:38.805Z,107.50
2023-04-29T16:47:39.294Z,114.60
2023-04-29T17:02:39.489Z,75.30
